Vandenberg Air Force Base Lompoc US
ICAO: KVBG
IATA: VBG
Category: Large
Scheduled Services: No

Elevation: 369 ft
TransAlt. 18000 ft.

Airport Communications:
SANTA BARB APP/DEP:124.15
COMD POST:31.1
ATIS:133.125
CTAF:124.95
GND/CLNC DEL:121.75
RANGE CON:121.4
PMSV METRO:34.24
PTD:126.2
TWR:124.95

KVBG Zoom In..

If Map Doesn't Load, Click Here

Runways:

(A) RW 12 length 15000 ft width 200 ft
ILS 110.10 / hdg 122

(B) RW 30 length 15000 ft width 200 ft
ILS 110.10 / hdg 302

Location; KVBG
Day. 22 / Time. 22.20 Zulu
* Altimeter: 29.95
* Temperature: 17° c. 62.6°f.
* Wind from: 350° Speed 07 kn.
Dewpoint: 13° c.
Visibility: 10 Statute Miles.
Clouds: Few 700 ft.
Clouds: Scattered 1000 ft.
Clouds: Scattered 1000 ft.
Clouds: Broken 00 ft.

KVBG 222220Z 35007KT 10SM FEW007 SCT010 17/13 A2995 RMK AO2A SCT010 V BKN LAST


Wind From 350°
Speed 07 kn.

 
 
jpsmedia.com for Web Design worldairports.se 2018   terms of use